sensor_id;sensor_type;location;lat;lon;timestamp;temperature;humidity
69189;DHT22;56302;52.322;5.926;2022-09-01T00:01:37;14.50;74.00
69189;DHT22;56302;52.322;5.926;2022-09-01T00:04:03;14.40;73.90
69189;DHT22;56302;52.322;5.926;2022-09-01T00:06:31;14.40;73.90
69189;DHT22;56302;52.322;5.926;2022-09-01T00:09:00;14.40;74.90
69189;DHT22;56302;52.322;5.926;2022-09-01T00:11:27;14.40;74.30
69189;DHT22;56302;52.322;5.926;2022-09-01T00:13:55;14.30;74.90
69189;DHT22;56302;52.322;5.926;2022-09-01T00:16:21;14.20;74.80
69189;DHT22;56302;52.322;5.926;2022-09-01T00:19:14;14.20;75.30
69189;DHT22;56302;52.322;5.926;2022-09-01T00:22:06;14.20;74.80
69189;DHT22;56302;52.322;5.926;2022-09-01T00:25:00;14.20;75.50
69189;DHT22;56302;52.322;5.926;2022-09-01T00:27:36;14.20;73.30
69189;DHT22;56302;52.322;5.926;2022-09-01T00:30:21;14.20;73.90
69189;DHT22;56302;52.322;5.926;2022-09-01T00:33:36;14.10;74.40
69189;DHT22;56302;52.322;5.926;2022-09-01T00:36:26;14.00;76.10
69189;DHT22;56302;52.322;5.926;2022-09-01T00:38:52;13.90;76.00
69189;DHT22;56302;52.322;5.926;2022-09-01T00:41:41;13.90;75.50
69189;DHT22;56302;52.322;5.926;2022-09-01T00:44:35;13.90;75.20
69189;DHT22;56302;52.322;5.926;2022-09-01T00:47:03;13.80;75.70
69189;DHT22;56302;52.322;5.926;2022-09-01T00:49:53;13.80;76.60
69189;DHT22;56302;52.322;5.926;2022-09-01T00:52:43;13.80;76.60
69189;DHT22;56302;52.322;5.926;2022-09-01T00:55:15;13.70;77.10
69189;DHT22;56302;52.322;5.926;2022-09-01T00:57:42;13.70;75.80
69189;DHT22;56302;52.322;5.926;2022-09-01T01:00:47;13.70;76.50
69189;DHT22;56302;52.322;5.926;2022-09-01T01:03:34;13.70;75.90
69189;DHT22;56302;52.322;5.926;2022-09-01T01:06:19;13.70;77.10
69189;DHT22;56302;52.322;5.926;2022-09-01T01:09:03;13.70;76.40
69189;DHT22;56302;52.322;5.926;2022-09-01T01:11:48;13.70;76.80
69189;DHT22;56302;52.322;5.926;2022-09-01T01:14:34;13.60;77.40
69189;DHT22;56302;52.322;5.926;2022-09-01T01:17:19;13.50;77.80
69189;DHT22;56302;52.322;5.926;2022-09-01T01:20:07;13.50;77.40
69189;DHT22;56302;52.322;5.926;2022-09-01T01:23:03;13.50;76.20
69189;DHT22;56302;52.322;5.926;2022-09-01T01:25:57;13.50;76.80
69189;DHT22;56302;52.322;5.926;2022-09-01T01:28:42;13.50;76.50
69189;DHT22;56302;52.322;5.926;2022-09-01T01:31:14;13.40;76.90
69189;DHT22;56302;52.322;5.926;2022-09-01T01:36:21;13.40;77.50
69189;DHT22;56302;52.322;5.926;2022-09-01T01:38:59;13.30;77.30
69189;DHT22;56302;52.322;5.926;2022-09-01T01:41:29;13.30;77.30
69189;DHT22;56302;52.322;5.926;2022-09-01T01:43:57;13.20;78.30
69189;DHT22;56302;52.322;5.926;2022-09-01T01:46:25;13.20;78.20
69189;DHT22;56302;52.322;5.926;2022-09-01T01:48:51;13.20;77.80
69189;DHT22;56302;52.322;5.926;2022-09-01T01:51:19;13.20;77.70
69189;DHT22;56302;52.322;5.926;2022-09-01T01:53:46;13.10;77.70
69189;DHT22;56302;52.322;5.926;2022-09-01T01:56:13;13.10;77.30
69189;DHT22;56302;52.322;5.926;2022-09-01T01:58:38;13.10;77.80
69189;DHT22;56302;52.322;5.926;2022-09-01T02:01:05;13.10;77.00
69189;DHT22;56302;52.322;5.926;2022-09-01T02:03:34;13.10;77.10
69189;DHT22;56302;52.322;5.926;2022-09-01T02:06:09;13.00;76.90
69189;DHT22;56302;52.322;5.926;2022-09-01T02:09:03;12.90;77.50
69189;DHT22;56302;52.322;5.926;2022-09-01T02:11:49;12.90;77.80
69189;DHT22;56302;52.322;5.926;2022-09-01T02:14:18;12.90;77.70
69189;DHT22;56302;52.322;5.926;2022-09-01T02:16:45;12.90;78.20
69189;DHT22;56302;52.322;5.926;2022-09-01T02:19:10;12.90;77.80
69189;DHT22;56302;52.322;5.926;2022-09-01T02:21:36;12.90;77.90
69189;DHT22;56302;52.322;5.926;2022-09-01T02:24:04;12.80;78.10
69189;DHT22;56302;52.322;5.926;2022-09-01T02:26:33;12.90;77.70
69189;DHT22;56302;52.322;5.926;2022-09-01T02:29:01;12.80;77.10
69189;DHT22;56302;52.322;5.926;2022-09-01T02:31:29;12.80;77.60
69189;DHT22;56302;52.322;5.926;2022-09-01T02:33:56;12.80;78.10
69189;DHT22;56302;52.322;5.926;2022-09-01T02:36:23;12.80;76.90
69189;DHT22;56302;52.322;5.926;2022-09-01T02:38:50;12.80;75.80
69189;DHT22;56302;52.322;5.926;2022-09-01T02:41:17;12.90;74.90
69189;DHT22;56302;52.322;5.926;2022-09-01T02:43:45;12.90;74.60
69189;DHT22;56302;52.322;5.926;2022-09-01T02:46:11;12.90;74.70
69189;DHT22;56302;52.322;5.926;2022-09-01T02:48:40;12.60;76.40
69189;DHT22;56302;52.322;5.926;2022-09-01T02:51:11;12.50;75.60
69189;DHT22;56302;52.322;5.926;2022-09-01T02:53:39;12.70;75.10
69189;DHT22;56302;52.322;5.926;2022-09-01T02:56:08;12.70;74.60
69189;DHT22;56302;52.322;5.926;2022-09-01T02:58:36;12.60;74.20
69189;DHT22;56302;52.322;5.926;2022-09-01T03:01:20;12.70;73.80
69189;DHT22;56302;52.322;5.926;2022-09-01T03:03:56;12.60;73.60
69189;DHT22;56302;52.322;5.926;2022-09-01T03:06:23;12.60;73.60
69189;DHT22;56302;52.322;5.926;2022-09-01T03:08:54;12.60;73.90
69189;DHT22;56302;52.322;5.926;2022-09-01T03:11:21;12.50;73.40
69189;DHT22;56302;52.322;5.926;2022-09-01T03:13:48;12.50;73.30
69189;DHT22;56302;52.322;5.926;2022-09-01T03:16:14;12.50;73.00
69189;DHT22;56302;52.322;5.926;2022-09-01T03:18:41;12.40;73.70
69189;DHT22;56302;52.322;5.926;2022-09-01T03:21:10;12.40;73.50
69189;DHT22;56302;52.322;5.926;2022-09-01T03:23:41;12.40;73.60
69189;DHT22;56302;52.322;5.926;2022-09-01T03:26:07;12.40;73.10
69189;DHT22;56302;52.322;5.926;2022-09-01T03:28:32;12.30;73.80
69189;DHT22;56302;52.322;5.926;2022-09-01T03:30:58;12.30;73.60
69189;DHT22;56302;52.322;5.926;2022-09-01T03:33:26;12.10;74.10
69189;DHT22;56302;52.322;5.926;2022-09-01T03:35:52;12.20;74.20
69189;DHT22;56302;52.322;5.926;2022-09-01T03:38:18;12.10;74.50
69189;DHT22;56302;52.322;5.926;2022-09-01T03:40:59;12.00;74.40
69189;DHT22;56302;52.322;5.926;2022-09-01T03:43:25;12.00;74.20
69189;DHT22;56302;52.322;5.926;2022-09-01T03:45:53;12.00;73.90
69189;DHT22;56302;52.322;5.926;2022-09-01T03:48:21;12.00;73.60
69189;DHT22;56302;52.322;5.926;2022-09-01T03:50:47;11.90;73.90
69189;DHT22;56302;52.322;5.926;2022-09-01T03:53:17;11.90;73.90
69189;DHT22;56302;52.322;5.926;2022-09-01T03:55:46;11.90;73.70
69189;DHT22;56302;52.322;5.926;2022-09-01T03:58:15;11.90;74.60
69189;DHT22;56302;52.322;5.926;2022-09-01T04:00:45;11.70;74.70
69189;DHT22;56302;52.322;5.926;2022-09-01T04:03:12;11.70;75.30
69189;DHT22;56302;52.322;5.926;2022-09-01T04:05:41;11.30;77.60
69189;DHT22;56302;52.322;5.926;2022-09-01T04:08:09;11.20;78.40
69189;DHT22;56302;52.322;5.926;2022-09-01T04:10:44;11.10;77.10
69189;DHT22;56302;52.322;5.926;2022-09-01T04:13:23;11.00;77.50
69189;DHT22;56302;52.322;5.926;2022-09-01T04:15:49;11.10;76.30
69189;DHT22;56302;52.322;5.926;2022-09-01T04:18:16;11.30;75.30
69189;DHT22;56302;52.322;5.926;2022-09-01T04:20:47;11.30;74.60
69189;DHT22;56302;52.322;5.926;2022-09-01T04:25:54;11.30;74.70
69189;DHT22;56302;52.322;5.926;2022-09-01T04:28:21;11.30;75.80
69189;DHT22;56302;52.322;5.926;2022-09-01T04:30:50;11.20;75.70
69189;DHT22;56302;52.322;5.926;2022-09-01T04:33:18;11.20;75.30
69189;DHT22;56302;52.322;5.926;2022-09-01T04:35:44;11.10;75.30
69189;DHT22;56302;52.322;5.926;2022-09-01T04:38:12;11.10;75.20
69189;DHT22;56302;52.322;5.926;2022-09-01T04:40:41;11.10;74.80
69189;DHT22;56302;52.322;5.926;2022-09-01T04:43:07;11.10;74.90
69189;DHT22;56302;52.322;5.926;2022-09-01T04:45:36;11.10;75.40
69189;DHT22;56302;52.322;5.926;2022-09-01T04:48:05;11.00;74.70
69189;DHT22;56302;52.322;5.926;2022-09-01T04:50:32;11.00;75.00
69189;DHT22;56302;52.322;5.926;2022-09-01T04:53:00;10.90;76.70
69189;DHT22;56302;52.322;5.926;2022-09-01T04:55:27;10.50;77.30
69189;DHT22;56302;52.322;5.926;2022-09-01T04:57:54;10.00;78.80
69189;DHT22;56302;52.322;5.926;2022-09-01T05:00:22;10.20;77.70
69189;DHT22;56302;52.322;5.926;2022-09-01T05:02:50;10.30;76.90
69189;DHT22;56302;52.322;5.926;2022-09-01T05:05:21;10.40;76.30
69189;DHT22;56302;52.322;5.926;2022-09-01T05:07:48;10.50;75.10
69189;DHT22;56302;52.322;5.926;2022-09-01T05:10:20;10.60;74.80
69189;DHT22;56302;52.322;5.926;2022-09-01T05:12:46;10.60;75.60
69189;DHT22;56302;52.322;5.926;2022-09-01T05:15:14;10.60;75.00
69189;DHT22;56302;52.322;5.926;2022-09-01T05:17:40;10.60;75.10
69189;DHT22;56302;52.322;5.926;2022-09-01T05:20:06;10.60;75.70
69189;DHT22;56302;52.322;5.926;2022-09-01T05:22:32;10.60;75.70
69189;DHT22;56302;52.322;5.926;2022-09-01T05:24:59;10.60;76.90
69189;DHT22;56302;52.322;5.926;2022-09-01T05:27:36;10.50;76.10
69189;DHT22;56302;52.322;5.926;2022-09-01T05:30:04;10.40;76.90
69189;DHT22;56302;52.322;5.926;2022-09-01T05:32:33;10.50;76.40
69189;DHT22;56302;52.322;5.926;2022-09-01T05:35:02;10.50;76.70
69189;DHT22;56302;52.322;5.926;2022-09-01T05:37:33;10.60;76.00
69189;DHT22;56302;52.322;5.926;2022-09-01T05:40:00;10.50;77.30
69189;DHT22;56302;52.322;5.926;2022-09-01T05:42:26;10.40;78.50
69189;DHT22;56302;52.322;5.926;2022-09-01T05:44:52;10.20;80.40
69189;DHT22;56302;52.322;5.926;2022-09-01T05:47:18;10.30;79.30
69189;DHT22;56302;52.322;5.926;2022-09-01T05:49:46;10.40;79.00
69189;DHT22;56302;52.322;5.926;2022-09-01T05:52:13;10.50;77.90
69189;DHT22;56302;52.322;5.926;2022-09-01T05:54:39;10.50;78.10
69189;DHT22;56302;52.322;5.926;2022-09-01T05:57:06;10.60;78.10
69189;DHT22;56302;52.322;5.926;2022-09-01T05:59:32;10.60;78.20
69189;DHT22;56302;52.322;5.926;2022-09-01T06:01:58;10.70;78.90
69189;DHT22;56302;52.322;5.926;2022-09-01T06:04:25;10.80;79.30
69189;DHT22;56302;52.322;5.926;2022-09-01T06:06:51;10.80;78.80
69189;DHT22;56302;52.322;5.926;2022-09-01T06:09:17;10.90;78.40
69189;DHT22;56302;52.322;5.926;2022-09-01T06:11:44;11.00;79.70
69189;DHT22;56302;52.322;5.926;2022-09-01T06:14:14;11.10;80.60
69189;DHT22;56302;52.322;5.926;2022-09-01T06:16:40;11.20;80.20
69189;DHT22;56302;52.322;5.926;2022-09-01T06:19:07;11.40;81.10
69189;DHT22;56302;52.322;5.926;2022-09-01T06:21:32;11.60;81.00
69189;DHT22;56302;52.322;5.926;2022-09-01T06:23:58;11.80;81.30
69189;DHT22;56302;52.322;5.926;2022-09-01T06:26:32;11.90;80.80
69189;DHT22;56302;52.322;5.926;2022-09-01T06:29:02;12.10;80.00
69189;DHT22;56302;52.322;5.926;2022-09-01T06:31:30;12.20;79.30
69189;DHT22;56302;52.322;5.926;2022-09-01T06:33:59;12.40;79.30
69189;DHT22;56302;52.322;5.926;2022-09-01T06:36:25;12.50;78.70
69189;DHT22;56302;52.322;5.926;2022-09-01T06:38:52;12.60;77.90
69189;DHT22;56302;52.322;5.926;2022-09-01T06:41:20;12.70;77.80
69189;DHT22;56302;52.322;5.926;2022-09-01T06:43:47;12.90;76.90
69189;DHT22;56302;52.322;5.926;2022-09-01T06:46:14;13.00;76.70
69189;DHT22;56302;52.322;5.926;2022-09-01T06:48:40;13.20;76.40
69189;DHT22;56302;52.322;5.926;2022-09-01T06:51:16;13.50;75.50
69189;DHT22;56302;52.322;5.926;2022-09-01T06:53:44;13.90;73.90
69189;DHT22;56302;52.322;5.926;2022-09-01T06:56:11;14.30;72.40
69189;DHT22;56302;52.322;5.926;2022-09-01T06:58:42;14.80;71.40
69189;DHT22;56302;52.322;5.926;2022-09-01T07:01:11;15.20;70.30
69189;DHT22;56302;52.322;5.926;2022-09-01T07:03:42;15.70;68.40
69189;DHT22;56302;52.322;5.926;2022-09-01T07:06:08;16.10;67.80
69189;DHT22;56302;52.322;5.926;2022-09-01T07:08:35;16.60;67.50
69189;DHT22;56302;52.322;5.926;2022-09-01T07:11:15;17.10;67.80
69189;DHT22;56302;52.322;5.926;2022-09-01T07:13:42;17.50;62.90
69189;DHT22;56302;52.322;5.926;2022-09-01T07:16:16;17.70;62.40
69189;DHT22;56302;52.322;5.926;2022-09-01T07:18:44;17.90;61.70
69189;DHT22;56302;52.322;5.926;2022-09-01T07:21:10;18.40;64.70
69189;DHT22;56302;52.322;5.926;2022-09-01T07:23:35;19.10;61.20
69189;DHT22;56302;52.322;5.926;2022-09-01T07:26:05;19.60;60.70
69189;DHT22;56302;52.322;5.926;2022-09-01T07:28:31;19.90;59.30
69189;DHT22;56302;52.322;5.926;2022-09-01T07:30:57;20.00;56.10
69189;DHT22;56302;52.322;5.926;2022-09-01T07:33:23;20.10;56.40
69189;DHT22;56302;52.322;5.926;2022-09-01T07:35:50;20.30;54.70
69189;DHT22;56302;52.322;5.926;2022-09-01T07:38:20;20.50;53.80
69189;DHT22;56302;52.322;5.926;2022-09-01T07:40:46;20.70;53.50
69189;DHT22;56302;52.322;5.926;2022-09-01T07:43:20;20.90;53.70
69189;DHT22;56302;52.322;5.926;2022-09-01T07:45:50;21.50;52.80
69189;DHT22;56302;52.322;5.926;2022-09-01T07:48:18;20.90;55.10
69189;DHT22;56302;52.322;5.926;2022-09-01T07:50:46;21.40;52.80
69189;DHT22;56302;52.322;5.926;2022-09-01T07:53:17;21.60;51.80
69189;DHT22;56302;52.322;5.926;2022-09-01T07:55:45;21.70;52.20
69189;DHT22;56302;52.322;5.926;2022-09-01T07:58:12;22.10;51.00
69189;DHT22;56302;52.322;5.926;2022-09-01T08:00:39;22.30;50.30
69189;DHT22;56302;52.322;5.926;2022-09-01T08:03:05;22.50;47.80
69189;DHT22;56302;52.322;5.926;2022-09-01T08:05:32;22.30;50.80
69189;DHT22;56302;52.322;5.926;2022-09-01T08:07:57;23.10;48.30
69189;DHT22;56302;52.322;5.926;2022-09-01T08:10:23;23.70;46.40
69189;DHT22;56302;52.322;5.926;2022-09-01T08:12:49;23.40;46.80
69189;DHT22;56302;52.322;5.926;2022-09-01T08:15:15;23.10;47.70
69189;DHT22;56302;52.322;5.926;2022-09-01T08:17:42;23.30;46.90
69189;DHT22;56302;52.322;5.926;2022-09-01T08:20:08;23.10;46.80
69189;DHT22;56302;52.322;5.926;2022-09-01T08:22:35;23.30;46.10
69189;DHT22;56302;52.322;5.926;2022-09-01T08:25:06;22.90;47.20
69189;DHT22;56302;52.322;5.926;2022-09-01T08:27:34;22.70;49.00
69189;DHT22;56302;52.322;5.926;2022-09-01T08:30:08;23.70;46.40
69189;DHT22;56302;52.322;5.926;2022-09-01T08:32:35;24.00;45.20
69189;DHT22;56302;52.322;5.926;2022-09-01T08:35:01;24.00;45.00
69189;DHT22;56302;52.322;5.926;2022-09-01T08:37:26;24.00;45.50
69189;DHT22;56302;52.322;5.926;2022-09-01T08:39:52;23.80;45.40
69189;DHT22;56302;52.322;5.926;2022-09-01T08:45:21;24.20;45.40
69189;DHT22;56302;52.322;5.926;2022-09-01T08:47:51;24.00;45.70
69189;DHT22;56302;52.322;5.926;2022-09-01T08:50:18;24.40;45.60
69189;DHT22;56302;52.322;5.926;2022-09-01T08:52:50;24.60;44.00
69189;DHT22;56302;52.322;5.926;2022-09-01T08:55:23;25.00;44.30
69189;DHT22;56302;52.322;5.926;2022-09-01T08:57:54;25.10;43.20
69189;DHT22;56302;52.322;5.926;2022-09-01T09:00:36;25.00;41.90
69189;DHT22;56302;52.322;5.926;2022-09-01T09:08:58;25.60;42.00
69189;DHT22;56302;52.322;5.926;2022-09-01T09:16:27;25.80;41.30
69189;DHT22;56302;52.322;5.926;2022-09-01T09:19:00;25.60;39.80
69189;DHT22;56302;52.322;5.926;2022-09-01T09:21:37;25.70;39.30
69189;DHT22;56302;52.322;5.926;2022-09-01T09:24:11;25.70;38.50
69189;DHT22;56302;52.322;5.926;2022-09-01T09:26:37;25.60;38.50
69189;DHT22;56302;52.322;5.926;2022-09-01T09:29:03;25.40;39.10
69189;DHT22;56302;52.322;5.926;2022-09-01T09:31:33;25.50;39.30
69189;DHT22;56302;52.322;5.926;2022-09-01T09:34:00;25.50;39.20
69189;DHT22;56302;52.322;5.926;2022-09-01T09:36:32;25.40;37.90
69189;DHT22;56302;52.322;5.926;2022-09-01T09:39:11;25.30;38.10
69189;DHT22;56302;52.322;5.926;2022-09-01T09:41:38;25.00;38.50
69189;DHT22;56302;52.322;5.926;2022-09-01T09:44:15;24.90;38.30
69189;DHT22;56302;52.322;5.926;2022-09-01T09:46:43;25.00;38.30
69189;DHT22;56302;52.322;5.926;2022-09-01T09:51:47;25.50;38.50
69189;DHT22;56302;52.322;5.926;2022-09-01T09:56:43;25.40;37.40
69189;DHT22;56302;52.322;5.926;2022-09-01T09:59:43;25.40;37.60
69189;DHT22;56302;52.322;5.926;2022-09-01T10:02:33;25.50;37.40
69189;DHT22;56302;52.322;5.926;2022-09-01T10:07:48;25.80;36.70
69189;DHT22;56302;52.322;5.926;2022-09-01T10:10:29;25.80;37.40
69189;DHT22;56302;52.322;5.926;2022-09-01T10:18:15;25.30;37.70
69189;DHT22;56302;52.322;5.926;2022-09-01T10:20:50;25.50;37.80
69189;DHT22;56302;52.322;5.926;2022-09-01T10:23:19;25.50;37.40
69189;DHT22;56302;52.322;5.926;2022-09-01T10:25:44;24.80;37.20
69189;DHT22;56302;52.322;5.926;2022-09-01T10:28:17;24.80;37.50
69189;DHT22;56302;52.322;5.926;2022-09-01T10:30:44;24.20;38.00
69189;DHT22;56302;52.322;5.926;2022-09-01T10:33:13;24.60;37.90
69189;DHT22;56302;52.322;5.926;2022-09-01T10:35:43;24.90;37.20
69189;DHT22;56302;52.322;5.926;2022-09-01T10:38:15;24.20;37.80
69189;DHT22;56302;52.322;5.926;2022-09-01T10:40:49;24.70;37.40
69189;DHT22;56302;52.322;5.926;2022-09-01T10:44:07;24.70;37.50
69189;DHT22;56302;52.322;5.926;2022-09-01T10:48:58;24.90;36.70
69189;DHT22;56302;52.322;5.926;2022-09-01T10:53:50;23.50;38.90
69189;DHT22;56302;52.322;5.926;2022-09-01T10:56:25;23.30;39.20
69189;DHT22;56302;52.322;5.926;2022-09-01T11:04:22;22.60;40.80
69189;DHT22;56302;52.322;5.926;2022-09-01T11:12:24;23.10;39.90
69189;DHT22;56302;52.322;5.926;2022-09-01T11:17:55;22.90;40.50
69189;DHT22;56302;52.322;5.926;2022-09-01T11:20:33;23.30;40.40
69189;DHT22;56302;52.322;5.926;2022-09-01T11:23:24;23.80;39.90
69189;DHT22;56302;52.322;5.926;2022-09-01T11:25:54;24.00;38.90
69189;DHT22;56302;52.322;5.926;2022-09-01T11:30:58;22.90;40.10
69189;DHT22;56302;52.322;5.926;2022-09-01T11:36:03;23.50;39.10
69189;DHT22;56302;52.322;5.926;2022-09-01T11:38:54;23.70;37.80
69189;DHT22;56302;52.322;5.926;2022-09-01T11:41:28;24.00;37.80
69189;DHT22;56302;52.322;5.926;2022-09-01T11:43:59;24.20;37.00
69189;DHT22;56302;52.322;5.926;2022-09-01T11:46:30;24.70;37.00
69189;DHT22;56302;52.322;5.926;2022-09-01T11:48:59;24.70;37.20
69189;DHT22;56302;52.322;5.926;2022-09-01T11:51:25;24.90;36.60
69189;DHT22;56302;52.322;5.926;2022-09-01T11:53:51;25.00;36.70
69189;DHT22;56302;52.322;5.926;2022-09-01T11:56:26;25.10;36.40
69189;DHT22;56302;52.322;5.926;2022-09-01T11:58:52;25.00;36.30
69189;DHT22;56302;52.322;5.926;2022-09-01T12:01:30;24.90;36.70
69189;DHT22;56302;52.322;5.926;2022-09-01T12:03:56;25.30;36.40
69189;DHT22;56302;52.322;5.926;2022-09-01T12:06:28;25.30;36.30
69189;DHT22;56302;52.322;5.926;2022-09-01T12:08:59;25.10;36.30
69189;DHT22;56302;52.322;5.926;2022-09-01T12:11:29;24.80;36.60
69189;DHT22;56302;52.322;5.926;2022-09-01T12:14:02;24.70;36.60
69189;DHT22;56302;52.322;5.926;2022-09-01T12:16:29;24.40;36.40
69189;DHT22;56302;52.322;5.926;2022-09-01T12:18:56;24.40;35.70
69189;DHT22;56302;52.322;5.926;2022-09-01T12:24:31;24.50;36.20
69189;DHT22;56302;52.322;5.926;2022-09-01T12:26:58;24.80;35.90
69189;DHT22;56302;52.322;5.926;2022-09-01T12:29:25;24.80;34.50
69189;DHT22;56302;52.322;5.926;2022-09-01T12:31:52;24.60;35.10
69189;DHT22;56302;52.322;5.926;2022-09-01T12:34:25;24.60;35.30
69189;DHT22;56302;52.322;5.926;2022-09-01T12:39:37;24.70;34.60
69189;DHT22;56302;52.322;5.926;2022-09-01T12:42:21;24.80;34.30
69189;DHT22;56302;52.322;5.926;2022-09-01T12:44:59;24.70;34.70
69189;DHT22;56302;52.322;5.926;2022-09-01T12:50:04;24.40;35.50
69189;DHT22;56302;52.322;5.926;2022-09-01T12:52:34;24.40;35.40
69189;DHT22;56302;52.322;5.926;2022-09-01T12:57:30;24.10;35.10
69189;DHT22;56302;52.322;5.926;2022-09-01T13:00:08;24.10;35.50
69189;DHT22;56302;52.322;5.926;2022-09-01T13:02:44;24.10;35.70
69189;DHT22;56302;52.322;5.926;2022-09-01T13:07:58;24.10;36.00
69189;DHT22;56302;52.322;5.926;2022-09-01T13:10:25;24.10;35.70
69189;DHT22;56302;52.322;5.926;2022-09-01T13:12:53;24.10;36.10
69189;DHT22;56302;52.322;5.926;2022-09-01T13:15:19;24.00;35.60
69189;DHT22;56302;52.322;5.926;2022-09-01T13:17:45;24.20;34.90
69189;DHT22;56302;52.322;5.926;2022-09-01T13:20:11;24.10;35.50
69189;DHT22;56302;52.322;5.926;2022-09-01T13:22:38;24.10;34.90
69189;DHT22;56302;52.322;5.926;2022-09-01T13:25:06;24.10;35.60
69189;DHT22;56302;52.322;5.926;2022-09-01T13:27:31;24.10;35.80
69189;DHT22;56302;52.322;5.926;2022-09-01T13:29:57;24.00;36.20
69189;DHT22;56302;52.322;5.926;2022-09-01T13:32:23;24.00;36.00
69189;DHT22;56302;52.322;5.926;2022-09-01T13:34:50;24.00;36.30
69189;DHT22;56302;52.322;5.926;2022-09-01T13:37:17;24.00;35.70
69189;DHT22;56302;52.322;5.926;2022-09-01T13:39:42;23.90;35.90
69189;DHT22;56302;52.322;5.926;2022-09-01T13:42:08;23.90;35.40
69189;DHT22;56302;52.322;5.926;2022-09-01T13:44:34;24.00;35.40
69189;DHT22;56302;52.322;5.926;2022-09-01T13:47:00;24.10;35.30
69189;DHT22;56302;52.322;5.926;2022-09-01T13:49:25;24.20;35.10
69189;DHT22;56302;52.322;5.926;2022-09-01T13:51:52;23.90;35.60
69189;DHT22;56302;52.322;5.926;2022-09-01T13:54:18;23.90;35.10
69189;DHT22;56302;52.322;5.926;2022-09-01T13:56:44;24.00;35.20
69189;DHT22;56302;52.322;5.926;2022-09-01T13:59:10;23.90;35.80
69189;DHT22;56302;52.322;5.926;2022-09-01T14:01:36;24.00;36.10
69189;DHT22;56302;52.322;5.926;2022-09-01T14:04:01;24.00;36.00
69189;DHT22;56302;52.322;5.926;2022-09-01T14:06:30;24.10;35.60
69189;DHT22;56302;52.322;5.926;2022-09-01T14:08:56;24.10;35.60
69189;DHT22;56302;52.322;5.926;2022-09-01T14:11:22;23.90;35.60
69189;DHT22;56302;52.322;5.926;2022-09-01T14:13:48;23.90;35.40
69189;DHT22;56302;52.322;5.926;2022-09-01T14:16:14;23.90;35.70
69189;DHT22;56302;52.322;5.926;2022-09-01T14:18:40;24.10;35.80
69189;DHT22;56302;52.322;5.926;2022-09-01T14:21:13;24.00;36.10
69189;DHT22;56302;52.322;5.926;2022-09-01T14:23:40;24.10;36.30
69189;DHT22;56302;52.322;5.926;2022-09-01T14:26:14;24.00;36.20
69189;DHT22;56302;52.322;5.926;2022-09-01T14:28:41;24.10;36.10
69189;DHT22;56302;52.322;5.926;2022-09-01T14:31:11;24.10;36.00
69189;DHT22;56302;52.322;5.926;2022-09-01T14:33:38;24.00;36.30
69189;DHT22;56302;52.322;5.926;2022-09-01T14:36:05;24.00;36.30
69189;DHT22;56302;52.322;5.926;2022-09-01T14:38:31;24.00;36.80
69189;DHT22;56302;52.322;5.926;2022-09-01T14:40:57;24.00;36.30
69189;DHT22;56302;52.322;5.926;2022-09-01T14:43:23;24.00;36.50
69189;DHT22;56302;52.322;5.926;2022-09-01T14:46:01;24.00;36.30
69189;DHT22;56302;52.322;5.926;2022-09-01T14:48:31;23.90;36.30
69189;DHT22;56302;52.322;5.926;2022-09-01T14:50:56;23.80;36.60
69189;DHT22;56302;52.322;5.926;2022-09-01T14:53:22;23.80;36.30
69189;DHT22;56302;52.322;5.926;2022-09-01T14:55:48;23.90;36.40
69189;DHT22;56302;52.322;5.926;2022-09-01T14:58:13;23.80;36.90
69189;DHT22;56302;52.322;5.926;2022-09-01T15:00:39;23.80;36.30
69189;DHT22;56302;52.322;5.926;2022-09-01T15:03:06;23.90;36.40
69189;DHT22;56302;52.322;5.926;2022-09-01T15:05:31;23.90;36.10
69189;DHT22;56302;52.322;5.926;2022-09-01T15:07:57;23.80;36.50
69189;DHT22;56302;52.322;5.926;2022-09-01T15:10:24;23.80;36.70
69189;DHT22;56302;52.322;5.926;2022-09-01T15:12:51;23.90;36.20
69189;DHT22;56302;52.322;5.926;2022-09-01T15:15:17;23.80;36.40
69189;DHT22;56302;52.322;5.926;2022-09-01T15:17:43;23.80;36.20
69189;DHT22;56302;52.322;5.926;2022-09-01T15:20:08;23.80;36.40
69189;DHT22;56302;52.322;5.926;2022-09-01T15:22:53;23.70;36.20
69189;DHT22;56302;52.322;5.926;2022-09-01T15:25:18;23.70;36.40
69189;DHT22;56302;52.322;5.926;2022-09-01T15:27:44;23.70;36.30
69189;DHT22;56302;52.322;5.926;2022-09-01T15:30:11;23.70;36.00
69189;DHT22;56302;52.322;5.926;2022-09-01T15:32:46;23.60;36.20
69189;DHT22;56302;52.322;5.926;2022-09-01T15:35:13;23.60;36.30
69189;DHT22;56302;52.322;5.926;2022-09-01T15:37:39;23.60;36.70
69189;DHT22;56302;52.322;5.926;2022-09-01T15:40:06;23.50;36.60
69189;DHT22;56302;52.322;5.926;2022-09-01T15:42:34;23.50;37.00
69189;DHT22;56302;52.322;5.926;2022-09-01T15:45:04;23.50;37.00
69189;DHT22;56302;52.322;5.926;2022-09-01T15:47:30;23.50;37.30
69189;DHT22;56302;52.322;5.926;2022-09-01T15:49:56;23.40;37.40
69189;DHT22;56302;52.322;5.926;2022-09-01T15:52:22;23.40;37.10
69189;DHT22;56302;52.322;5.926;2022-09-01T15:54:47;23.40;36.80
69189;DHT22;56302;52.322;5.926;2022-09-01T15:57:13;23.40;36.80
69189;DHT22;56302;52.322;5.926;2022-09-01T15:59:38;23.40;37.10
69189;DHT22;56302;52.322;5.926;2022-09-01T16:02:06;23.30;37.10
69189;DHT22;56302;52.322;5.926;2022-09-01T16:04:32;23.20;37.30
69189;DHT22;56302;52.322;5.926;2022-09-01T16:06:58;23.10;37.40
69189;DHT22;56302;52.322;5.926;2022-09-01T16:09:24;23.10;37.70
69189;DHT22;56302;52.322;5.926;2022-09-01T16:11:51;23.10;37.40
69189;DHT22;56302;52.322;5.926;2022-09-01T16:14:17;23.10;37.30
69189;DHT22;56302;52.322;5.926;2022-09-01T16:24:52;23.00;37.60
69189;DHT22;56302;52.322;5.926;2022-09-01T16:27:26;23.00;37.50
69189;DHT22;56302;52.322;5.926;2022-09-01T16:29:54;23.00;37.50
69189;DHT22;56302;52.322;5.926;2022-09-01T16:32:21;22.90;37.90
69189;DHT22;56302;52.322;5.926;2022-09-01T16:34:48;22.90;37.70
69189;DHT22;56302;52.322;5.926;2022-09-01T16:39:50;22.90;38.10
69189;DHT22;56302;52.322;5.926;2022-09-01T16:45:29;22.80;37.90
69189;DHT22;56302;52.322;5.926;2022-09-01T16:56:35;22.60;38.20
69189;DHT22;56302;52.322;5.926;2022-09-01T17:04:49;22.40;38.30
69189;DHT22;56302;52.322;5.926;2022-09-01T17:15:36;22.30;38.90
69189;DHT22;56302;52.322;5.926;2022-09-01T17:18:17;22.20;38.80
69189;DHT22;56302;52.322;5.926;2022-09-01T17:20:48;22.20;39.20
69189;DHT22;56302;52.322;5.926;2022-09-01T17:23:24;22.20;39.40
69189;DHT22;56302;52.322;5.926;2022-09-01T17:26:02;22.10;39.40
69189;DHT22;56302;52.322;5.926;2022-09-01T17:28:37;22.10;39.70
69189;DHT22;56302;52.322;5.926;2022-09-01T17:31:22;22.00;39.90
69189;DHT22;56302;52.322;5.926;2022-09-01T17:36:38;21.90;40.30
69189;DHT22;56302;52.322;5.926;2022-09-01T17:42:34;21.70;40.50